Harbert, Michigan
Current Conditions -  °F | °C
As of 9:55 PM on Sunday 23 Nov 2014 (Local Time) from KMGC Reporting Station
Moderate Rain Moderate Rain  
Wind Chill: 50°   Ceiling: 700
Heat Index: 50°   Visibility: 7mi
Dew Point: 50°   Wind: 5mph
Humidity: 100%   Direction: 130°SE
Pressure: 29.22"   Gusts: NA
Location:  41.87°N, 86.63°W
Report Text: KMGC 240255Z AUTO 13004KT 7SM RA OVC007 10/10 A2922 RMK AO2
Loading
Personal Weather Stations






























Interactive Weather Map New forecast layout! Learn more

10-Day Weather Forecast

Advertisements
Track Severe Weather on mobile